Time;durP1;ratioP1;P1;durP2;ratioP2;P2;SDS_P1;SDS_P2;PMS_P1;PMS_P2;Temp;Humidity;BMP_temperature;BMP_pressure;BME280_temperature;BME280_humidity;BME280_pressure;Samples;Min_cycle;Max_cycle;Signal;HPM_P1;HPM_P2
2022/02/09 00:10:01;;;;;;;7.92;4.25;;;;;;;;;;1741738;82;21053;-69
2022/02/09 00:12:35;;;;;;;9.25;4.25;;;;;;;;;;1730457;82;21017;-69
2022/02/09 00:15:15;;;;;;;9.55;4.53;;;;;;;;;;1723827;82;20997;-69
2022/02/09 00:26:24;;;;;;;11.95;5.60;;;;;;;;;;1722909;82;20969;-69
2022/02/09 00:31:10;;;;;;;11.73;4.92;;;;;;;;;;1726074;82;21443;-68
2022/02/09 00:41:48;;;;;;;10.50;4.60;;;;;;;;;;1722348;82;21076;-69
2022/02/09 01:11:20;;;;;;;10.43;4.15;;;;;;;;;;1723665;82;21057;-69
2022/02/09 01:39:57;;;;;;;7.58;4.40;;;;;;;;;;1760802;80;20981;-68
2022/02/09 01:55:35;;;;;;;10.63;5.15;;;;;;;;;;1790823;80;21063;-70
2022/02/09 01:58:01;;;;;;;9.73;4.42;;;;;;;;;;1787700;80;21520;-69
2022/02/09 02:00:27;;;;;;;11.97;5.53;;;;;;;;;;1789246;80;21143;-69
2022/02/09 02:03:09;;;;;;;12.07;4.83;;;;;;;;;;1741909;78;74558;-68
2022/02/09 02:05:35;;;;;;;11.22;5.42;;;;;;;;;;1665186;84;21578;-69
2022/02/09 02:08:07;;;;;;;8.93;4.42;;;;;;;;;;1706453;84;21492;-69
2022/02/09 02:18:18;;;;;;;13.28;6.28;;;;;;;;;;1670586;86;21054;-70
2022/02/09 02:23:51;;;;;;;11.18;5.20;;;;;;;;;;1705536;84;21048;-69
2022/02/09 02:28:55;;;;;;;13.80;6.05;;;;;;;;;;1705756;84;21004;-70
2022/02/09 02:31:35;;;;;;;11.35;5.47;;;;;;;;;;1700141;84;21075;-70
2022/02/09 02:39:47;;;;;;;14.20;6.35;;;;;;;;;;1614132;88;21019;-70
2022/02/09 03:13:39;;;;;;;12.45;4.45;;;;;;;;;;1701047;84;21052;-69
2022/02/09 03:16:11;;;;;;;14.73;5.03;;;;;;;;;;1700491;84;22121;-69
2022/02/09 03:23:53;;;;;;;7.40;4.40;;;;;;;;;;1698966;84;21052;-69
2022/02/09 03:47:54;;;;;;;9.68;4.20;;;;;;;;;;1700811;84;21611;-70
2022/02/09 03:55:58;;;;;;;9.43;4.28;;;;;;;;;;1701023;84;21034;-69
2022/02/09 03:58:10;;;;;;;7.42;4.17;;;;;;;;;;1697832;84;21064;-69
2022/02/09 04:00:39;;;;;;;7.92;4.00;;;;;;;;;;1701253;84;21538;-70
2022/02/09 04:03:05;;;;;;;8.35;4.17;;;;;;;;;;1700111;83;21619;-70
2022/02/09 04:05:31;;;;;;;7.60;4.17;;;;;;;;;;1699120;83;21112;-70
2022/02/09 04:07:58;;;;;;;6.62;3.65;;;;;;;;;;1698638;84;21021;-70
2022/02/09 04:10:35;;;;;;;7.10;4.10;;;;;;;;;;1698232;84;21005;-70
2022/02/09 04:13:15;;;;;;;5.87;3.62;;;;;;;;;;1699787;83;21088;-70
2022/02/09 04:15:48;;;;;;;7.12;3.90;;;;;;;;;;1667799;84;21027;-70
2022/02/09 04:18:18;;;;;;;8.95;4.58;;;;;;;;;;1631619;86;21056;-70
2022/02/09 04:36:50;;;;;;;6.92;3.80;;;;;;;;;;1639036;87;21044;-69
2022/02/09 04:49:54;;;;;;;;;;;;;;;;;;1667159;86;21046;-69
2022/02/09 04:52:22;;;;;;;10.30;4.60;;;;;;;;;;1684611;85;20154;-68
2022/02/09 04:54:50;;;;;;;8.20;4.40;;;;;;;;;;1692333;85;21130;-69
2022/02/09 04:57:38;;;;;;;7.90;4.47;;;;;;;;;;1691931;85;21034;-69
2022/02/09 04:59:52;;;;;;;7.05;4.85;;;;;;;;;;1694973;83;21072;-69
2022/02/09 05:19:08;;;;;;;5.97;3.80;;;;;;;;;;1689977;85;21140;-70
2022/02/09 05:24:02;;;;;;;7.47;4.45;;;;;;;;;;1691409;85;21037;-70
2022/02/09 05:26:24;;;;;;;6.87;4.08;;;;;;;;;;1684941;85;21555;-70
2022/02/09 05:28:48;;;;;;;8.23;3.67;;;;;;;;;;1685251;85;21040;-70
2022/02/09 05:31:14;;;;;;;8.65;4.70;;;;;;;;;;1691926;85;21076;-70
2022/02/09 05:33:44;;;;;;;6.72;3.80;;;;;;;;;;1693847;85;20981;-69
2022/02/09 05:36:10;;;;;;;6.58;4.20;;;;;;;;;;1690902;85;21053;-70
2022/02/09 05:38:37;;;;;;;8.50;4.12;;;;;;;;;;1691423;85;21062;-70
2022/02/09 05:41:03;;;;;;;6.62;4.55;;;;;;;;;;1693815;85;21127;-70
2022/02/09 05:43:29;;;;;;;9.45;4.85;;;;;;;;;;1693896;83;21072;-70
2022/02/09 05:51:18;;;;;;;5.45;3.52;;;;;;;;;;1682382;85;21009;-69
2022/02/09 05:59:05;;;;;;;9.08;4.28;;;;;;;;;;1685383;85;21033;-69
2022/02/09 06:01:21;;;;;;;5.85;3.58;;;;;;;;;;1690682;85;21037;-70
2022/02/09 06:03:47;;;;;;;7.12;3.92;;;;;;;;;;1692121;83;21066;-70
2022/02/09 06:06:13;;;;;;;6.83;3.95;;;;;;;;;;1692737;84;21037;-69
2022/02/09 06:08:39;;;;;;;6.67;3.40;;;;;;;;;;1693811;85;21017;-70
2022/02/09 06:11:25;;;;;;;6.15;3.20;;;;;;;;;;1693697;85;21009;-71
2022/02/09 06:13:50;;;;;;;8.33;4.47;;;;;;;;;;1688914;85;21037;-69
2022/02/09 06:21:21;;;;;;;7.28;4.67;;;;;;;;;;1693999;85;21029;-70
2022/02/09 06:23:47;;;;;;;9.33;4.10;;;;;;;;;;1693581;85;21044;-70
2022/02/09 06:26:13;;;;;;;7.20;4.03;;;;;;;;;;1693743;85;21647;-70
2022/02/09 06:28:39;;;;;;;6.78;4.20;;;;;;;;;;1689837;85;21114;-70
2022/02/09 06:31:06;;;;;;;6.65;3.80;;;;;;;;;;1667488;85;21064;-69
2022/02/09 06:33:32;;;;;;;7.67;3.80;;;;;;;;;;1693839;85;21033;-69
2022/02/09 06:36:01;;;;;;;7.03;3.30;;;;;;;;;;1693765;85;20997;-70
2022/02/09 06:38:27;;;;;;;5.60;3.05;;;;;;;;;;1693952;85;21592;-70
2022/02/09 06:40:55;;;;;;;7.67;3.75;;;;;;;;;;1693761;85;21575;-70
2022/02/09 06:43:21;;;;;;;5.55;3.80;;;;;;;;;;1693796;85;21073;-71
2022/02/09 06:45:47;;;;;;;5.40;3.35;;;;;;;;;;1684716;85;21036;-68
2022/02/09 06:48:14;;;;;;;5.87;3.42;;;;;;;;;;1688646;85;21829;-70
2022/02/09 06:50:44;;;;;;;6.17;3.95;;;;;;;;;;1693900;83;21004;-70
2022/02/09 06:55:52;;;;;;;5.75;3.50;;;;;;;;;;1694033;85;21322;-69
2022/02/09 06:58:18;;;;;;;5.70;3.92;;;;;;;;;;1692400;85;21551;-70
2022/02/09 07:00:41;;;;;;;5.70;3.02;;;;;;;;;;1692760;85;21012;-70
2022/02/09 07:03:08;;;;;;;5.75;3.90;;;;;;;;;;1693676;83;21048;-71
2022/02/09 07:05:34;;;;;;;5.45;3.55;;;;;;;;;;1678527;84;21080;-69
2022/02/09 07:08:00;;;;;;;5.95;3.27;;;;;;;;;;1653781;87;21050;-70
2022/02/09 07:10:26;;;;;;;6.70;3.20;;;;;;;;;;1667191;86;21012;-69
2022/02/09 07:12:52;;;;;;;4.80;3.20;;;;;;;;;;1667270;86;21048;-70
2022/02/09 07:15:28;;;;;;;6.55;3.72;;;;;;;;;;1659717;85;21064;-73
2022/02/09 07:17:49;;;;;;;6.42;3.50;;;;;;;;;;1662817;86;21100;-70
2022/02/09 07:20:22;;;;;;;9.28;4.90;;;;;;;;;;1665922;86;21051;-70
2022/02/09 07:22:49;;;;;;;7.30;4.05;;;;;;;;;;1668369;85;20978;-70
2022/02/09 07:25:16;;;;;;;8.15;4.65;;;;;;;;;;1667948;86;21045;-72
2022/02/09 07:30:10;;;;;;;7.70;3.80;;;;;;;;;;1664591;86;21886;-69
2022/02/09 07:32:36;;;;;;;5.35;3.30;;;;;;;;;;1648174;86;21050;-70
2022/02/09 07:35:02;;;;;;;5.62;3.02;;;;;;;;;;1662648;86;21092;-69
2022/02/09 07:37:28;;;;;;;5.25;3.30;;;;;;;;;;1668920;86;21129;-69
2022/02/09 07:39:54;;;;;;;4.42;3.05;;;;;;;;;;1668999;86;21545;-68
2022/02/09 07:42:26;;;;;;;5.67;3.17;;;;;;;;;;1657625;86;21022;-70
2022/02/09 07:45:25;;;;;;;6.87;3.87;;;;;;;;;;1632076;86;21041;-70
2022/02/09 07:50:34;;;;;;;5.72;2.70;;;;;;;;;;1663279;86;21698;-70
2022/02/09 07:53:02;;;;;;;4.73;2.67;;;;;;;;;;1662666;84;21021;-68
2022/02/09 07:55:20;;;;;;;5.33;2.42;;;;;;;;;;1632385;87;21098;-70
2022/02/09 07:57:47;;;;;;;6.17;3.50;;;;;;;;;;1658157;86;21543;-70
2022/02/09 08:00:14;;;;;;;6.03;2.77;;;;;;;;;;1650805;86;21056;-69
2022/02/09 08:02:43;;;;;;;6.45;3.08;;;;;;;;;;1661744;85;21124;-71
2022/02/09 08:05:09;;;;;;;6.50;2.80;;;;;;;;;;1661002;85;21058;-72
2022/02/09 08:07:36;;;;;;;6.12;2.98;;;;;;;;;;1667508;86;21057;-71
2022/02/09 08:10:13;;;;;;;6.25;3.75;;;;;;;;;;1638108;86;21114;-71
2022/02/09 08:12:54;;;;;;;8.25;3.50;;;;;;;;;;1647368;86;22175;-70
2022/02/09 08:21:10;;;;;;;8.05;3.25;;;;;;;;;;1658735;86;21082;-70
2022/02/09 08:26:06;;;;;;;5.40;3.17;;;;;;;;;;1661582;86;21041;-69
2022/02/09 08:31:00;;;;;;;5.87;2.70;;;;;;;;;;1667277;86;21541;-71
2022/02/09 08:33:17;;;;;;;5.92;2.80;;;;;;;;;;1661960;86;21585;-71
2022/02/09 08:35:46;;;;;;;6.20;2.70;;;;;;;;;;1662014;86;21025;-71
2022/02/09 08:38:12;;;;;;;5.05;2.65;;;;;;;;;;1653141;86;21557;-72
2022/02/09 08:40:38;;;;;;;6.05;3.10;;;;;;;;;;1647705;86;21041;-71
2022/02/09 08:43:04;;;;;;;5.50;3.00;;;;;;;;;;1662485;86;21620;-70
2022/02/09 08:45:31;;;;;;;7.37;2.80;;;;;;;;;;1646456;86;20995;-69
2022/02/09 08:47:57;;;;;;;4.97;2.40;;;;;;;;;;1662055;86;21053;-71
2022/02/09 08:50:23;;;;;;;6.05;2.80;;;;;;;;;;1690443;84;21044;-70
2022/02/09 08:52:52;;;;;;;9.75;2.47;;;;;;;;;;1685479;84;21075;-71
2022/02/09 08:55:18;;;;;;;6.97;2.60;;;;;;;;;;1684850;84;21516;-70
2022/02/09 08:57:44;;;;;;;5.17;2.58;;;;;;;;;;1694259;84;21039;-71
2022/02/09 09:00:20;;;;;;;4.78;2.85;;;;;;;;;;1654792;87;21534;-71
2022/02/09 09:02:46;;;;;;;8.45;3.22;;;;;;;;;;1689258;83;21024;-70
2022/02/09 09:05:19;;;;;;;4.42;2.40;;;;;;;;;;1691290;84;21013;-70
2022/02/09 09:07:40;;;;;;;5.85;2.52;;;;;;;;;;1690943;84;21087;-70
2022/02/09 09:10:23;;;;;;;5.60;2.95;;;;;;;;;;1692430;84;21001;-70
2022/02/09 09:59:00;;;;;;;4.35;2.40;;;;;;;;;;1647172;86;21769;-71
2022/02/09 10:34:01;;;;;;;4.72;2.33;;;;;;;;;;1677837;84;21013;-70
2022/02/09 10:36:27;;;;;;;5.83;2.75;;;;;;;;;;1695500;84;21060;-70
2022/02/09 10:39:11;;;;;;;8.93;2.35;;;;;;;;;;1698322;84;21091;-69
2022/02/09 10:41:43;;;;;;;;;;;;;;;;;;1633524;87;21124;-71
2022/02/09 10:44:06;;;;;;;5.50;2.20;;;;;;;;;;1639147;86;20136;-70
2022/02/09 10:46:32;;;;;;;3.27;2.10;;;;;;;;;;1657683;86;21028;-71
2022/02/09 10:49:00;;;;;;;5.47;2.27;;;;;;;;;;1638840;87;21045;-71
2022/02/09 10:52:17;;;;;;;4.85;2.62;;;;;;;;;;1638848;87;21005;-70
2022/02/09 10:54:08;;;;;;;3.62;2.08;;;;;;;;;;1653618;86;21060;-70
2022/02/09 10:56:35;;;;;;;6.03;2.00;;;;;;;;;;1639080;87;21037;-70
2022/02/09 10:59:01;;;;;;;3.05;1.80;;;;;;;;;;1638995;87;21572;-70
2022/02/09 11:01:28;;;;;;;4.42;2.27;;;;;;;;;;1639031;86;21580;-71
2022/02/09 11:03:55;;;;;;;3.05;1.87;;;;;;;;;;1638724;87;21069;-70
2022/02/09 11:06:20;;;;;;;4.47;2.50;;;;;;;;;;1676967;83;21040;-71
2022/02/09 11:08:46;;;;;;;4.30;2.17;;;;;;;;;;1677042;84;21568;-71
2022/02/09 11:11:13;;;;;;;4.78;2.42;;;;;;;;;;1668993;86;21085;-70
2022/02/09 11:13:39;;;;;;;6.15;2.52;;;;;;;;;;1636997;88;21009;-70
2022/02/09 11:16:06;;;;;;;4.50;2.15;;;;;;;;;;1637596;88;21519;-71
2022/02/09 11:18:33;;;;;;;3.47;2.02;;;;;;;;;;1637506;86;20966;-70
2022/02/09 11:21:09;;;;;;;6.80;2.20;;;;;;;;;;1654087;86;21053;-70
2022/02/09 11:23:51;;;;;;;2.60;1.87;;;;;;;;;;1663946;86;21082;-70
2022/02/09 11:26:37;;;;;;;4.85;2.27;;;;;;;;;;1664177;86;21096;-70
2022/02/09 11:29:27;;;;;;;5.17;2.15;;;;;;;;;;1655613;86;21580;-70
2022/02/09 11:32:05;;;;;;;3.90;2.00;;;;;;;;;;1666026;85;21112;-71
2022/02/09 11:34:51;;;;;;;3.62;2.02;;;;;;;;;;1664594;86;21033;-70
2022/02/09 11:37:25;;;;;;;3.90;1.98;;;;;;;;;;1664670;86;21077;-71
2022/02/09 11:39:49;;;;;;;4.25;2.35;;;;;;;;;;1664146;86;21584;-70
2022/02/09 11:42:24;;;;;;;5.20;2.25;;;;;;;;;;1664029;86;21023;-70
2022/02/09 11:45:19;;;;;;;4.40;1.70;;;;;;;;;;1663657;86;21021;-70
2022/02/09 11:47:45;;;;;;;2.67;1.80;;;;;;;;;;1659596;86;21077;-70
2022/02/09 11:50:47;;;;;;;4.42;2.08;;;;;;;;;;1667334;85;21521;-71
2022/02/09 11:52:48;;;;;;;3.30;2.00;;;;;;;;;;1667901;85;21065;-71
2022/02/09 12:08:49;;;;;;;;;;;;;;;;;;1667765;85;21088;-70
2022/02/09 12:11:37;;;;;;;4.67;1.70;;;;;;;;;;1640635;86;21045;-71
2022/02/09 12:14:25;;;;;;;3.92;2.08;;;;;;;;;;1638806;87;21116;-70
2022/02/09 12:19:02;;;;;;;3.87;2.08;;;;;;;;;;1667385;86;21060;-71
2022/02/09 12:21:49;;;;;;;4.22;1.80;;;;;;;;;;1667209;86;21076;-71
2022/02/09 12:24:22;;;;;;;3.65;1.45;;;;;;;;;;1664577;86;21131;-71
2022/02/09 12:27:05;;;;;;;4.60;2.37;;;;;;;;;;1699208;84;21024;-71
2022/02/09 12:29:33;;;;;;;4.37;2.07;;;;;;;;;;1696876;84;21083;-71
2022/02/09 12:31:59;;;;;;;2.75;1.65;;;;;;;;;;1700174;84;21028;-71
2022/02/09 12:34:27;;;;;;;3.80;1.65;;;;;;;;;;1695513;84;21032;-71
2022/02/09 12:36:54;;;;;;;5.37;1.90;;;;;;;;;;1701128;84;21039;-70
2022/02/09 12:39:20;;;;;;;4.60;1.80;;;;;;;;;;1701041;84;21084;-70
2022/02/09 12:41:48;;;;;;;3.37;1.90;;;;;;;;;;1700955;84;21064;-70
2022/02/09 12:44:23;;;;;;;6.10;2.10;;;;;;;;;;1701132;84;21044;-71
2022/02/09 12:46:49;;;;;;;3.55;1.75;;;;;;;;;;1700766;84;21647;-70
2022/02/09 12:49:16;;;;;;;3.72;1.67;;;;;;;;;;1700871;84;21072;-71
2022/02/09 12:51:43;;;;;;;4.55;1.75;;;;;;;;;;1700299;84;21051;-71
2022/02/09 12:54:10;;;;;;;7.20;2.20;;;;;;;;;;1701009;84;21052;-71
2022/02/09 12:56:40;;;;;;;4.22;1.60;;;;;;;;;;1701096;84;21004;-71
2022/02/09 12:59:07;;;;;;;5.90;2.22;;;;;;;;;;1700886;84;21016;-71
2022/02/09 13:01:41;;;;;;;5.37;2.00;;;;;;;;;;1700235;83;21044;-70
2022/02/09 13:04:08;;;;;;;;;;;;;;;;;;1703566;84;21488;-70
2022/02/09 13:06:34;;;;;;;6.30;2.30;;;;;;;;;;1700727;83;20461;-70
2022/02/09 13:09:00;;;;;;;3.95;1.67;;;;;;;;;;1698250;84;21068;-70
2022/02/09 13:11:29;;;;;;;4.65;2.12;;;;;;;;;;1698288;84;21116;-70
2022/02/09 13:14:01;;;;;;;6.00;2.37;;;;;;;;;;1672932;84;21558;-70
2022/02/09 13:16:32;;;;;;;6.78;2.15;;;;;;;;;;1696286;84;21041;-70
2022/02/09 13:19:09;;;;;;;4.25;1.87;;;;;;;;;;1697464;84;21067;-71
2022/02/09 14:03:15;;;;;;;5.92;2.67;;;;;;;;;;1756187;81;21023;-70
2022/02/09 14:11:29;;;;;;;3.90;2.20;;;;;;;;;;1759577;81;21598;-71
2022/02/09 14:16:51;;;;;;;3.80;2.00;;;;;;;;;;1748566;81;21084;-71
2022/02/09 14:35:23;;;;;;;7.70;2.83;;;;;;;;;;1730498;82;21028;-70
2022/02/09 14:56:31;;;;;;;5.45;2.50;;;;;;;;;;1684224;84;21580;-72
2022/02/09 14:58:57;;;;;;;4.97;2.50;;;;;;;;;;1718131;82;21359;-71
2022/02/09 15:01:23;;;;;;;4.72;2.47;;;;;;;;;;1722328;81;21013;-72
2022/02/09 15:04:02;;;;;;;4.75;2.55;;;;;;;;;;1710962;83;20990;-72
2022/02/09 15:14:48;;;;;;;5.58;2.47;;;;;;;;;;1723640;83;21082;-72
2022/02/09 15:22:33;;;;;;;7.17;2.60;;;;;;;;;;1737682;82;21562;-71
2022/02/09 15:24:57;;;;;;;6.12;2.65;;;;;;;;;;1702918;83;21530;-71
2022/02/09 15:27:23;;;;;;;5.65;2.17;;;;;;;;;;1733196;82;21092;-72
2022/02/09 15:29:49;;;;;;;4.47;2.20;;;;;;;;;;1717002;83;21524;-71
2022/02/09 15:33:02;;;;;;;6.28;2.83;;;;;;;;;;1699727;83;21052;-71
2022/02/09 15:34:51;;;;;;;5.37;2.33;;;;;;;;;;1667431;84;21018;-71
2022/02/09 15:39:49;;;;;;;4.67;2.50;;;;;;;;;;1733810;81;21040;-70
2022/02/09 16:17:15;;;;;;;6.58;3.20;;;;;;;;;;1756210;81;21531;-70
2022/02/09 16:21:59;;;;;;;8.13;3.08;;;;;;;;;;1745781;81;21528;-72
2022/02/09 16:37:59;;;;;;;5.90;3.08;;;;;;;;;;1719227;82;20976;-71
2022/02/09 16:46:03;;;;;;;11.50;4.17;;;;;;;;;;1748204;82;21592;-71
2022/02/09 16:48:17;;;;;;;7.85;3.17;;;;;;;;;;1732638;82;21084;-71
2022/02/09 16:50:49;;;;;;;8.83;3.35;;;;;;;;;;1736232;82;20966;-72
2022/02/09 16:53:23;;;;;;;10.10;3.77;;;;;;;;;;1738566;82;21064;-72
2022/02/09 17:19:49;;;;;;;14.18;5.85;;;;;;;;;;1734540;82;20133;-72
2022/02/09 17:22:15;;;;;;;12.78;4.53;;;;;;;;;;1730429;82;20989;-71
2022/02/09 17:24:41;;;;;;;12.13;5.50;;;;;;;;;;1737266;82;21049;-72
2022/02/09 17:27:15;;;;;;;13.58;5.90;;;;;;;;;;1736858;81;21073;-71
2022/02/09 17:33:07;;;;;;;11.55;4.58;;;;;;;;;;1753192;82;21044;-71
2022/02/09 17:35:04;;;;;;;14.75;3.92;;;;;;;;;;1739930;82;21091;-71
2022/02/09 17:37:49;;;;;;;8.00;3.08;;;;;;;;;;1754863;82;21496;-72
2022/02/09 17:53:44;;;;;;;6.30;2.50;;;;;;;;;;1756639;81;21095;-72
2022/02/09 17:56:18;;;;;;;7.22;2.80;;;;;;;;;;1748192;82;21011;-70
2022/02/09 17:58:47;;;;;;;4.97;3.02;;;;;;;;;;1742791;81;21667;-71
2022/02/09 18:01:07;;;;;;;6.55;3.22;;;;;;;;;;1749614;82;21084;-71
2022/02/09 18:03:33;;;;;;;5.53;2.80;;;;;;;;;;1754597;81;21012;-70
2022/02/09 18:06:13;;;;;;;7.97;3.33;;;;;;;;;;1736520;82;21056;-70
2022/02/09 18:08:36;;;;;;;8.33;3.00;;;;;;;;;;1739924;81;21061;-70
2022/02/09 18:11:13;;;;;;;6.75;2.67;;;;;;;;;;1768070;81;21061;-70
2022/02/09 18:29:48;;;;;;;5.22;2.35;;;;;;;;;;1742546;82;21077;-70
2022/02/09 18:45:43;;;;;;;13.85;4.75;;;;;;;;;;1741771;81;21040;-74
2022/02/09 18:48:41;;;;;;;10.18;4.60;;;;;;;;;;1749335;82;21033;-72
2022/02/09 19:01:57;;;;;;;9.95;4.08;;;;;;;;;;1696846;83;21036;-72
2022/02/09 19:04:13;;;;;;;9.50;4.00;;;;;;;;;;1700736;83;21086;-71
2022/02/09 19:15:03;;;;;;;13.28;5.20;;;;;;;;;;1671706;84;21559;-70
2022/02/09 19:17:33;;;;;;;21.57;7.90;;;;;;;;;;1687278;84;21021;-71
2022/02/09 19:20:11;;;;;;;11.90;5.92;;;;;;;;;;1687873;85;21505;-70
2022/02/09 19:33:27;;;;;;;10.53;5.15;;;;;;;;;;1697637;84;21119;-70
2022/02/09 19:49:19;;;;;;;11.35;5.50;;;;;;;;;;1746774;82;21005;-70
2022/02/09 19:56:57;;;;;;;11.90;4.90;;;;;;;;;;1748975;82;20116;-71
2022/02/09 19:59:21;;;;;;;11.33;5.05;;;;;;;;;;1746807;81;21086;-70
2022/02/09 20:01:49;;;;;;;16.10;5.42;;;;;;;;;;1745890;82;21618;-70
2022/02/09 20:04:15;;;;;;;12.68;5.50;;;;;;;;;;1747809;82;21519;-70
2022/02/09 20:06:43;;;;;;;12.23;5.20;;;;;;;;;;1746629;82;21055;-71
2022/02/09 20:09:09;;;;;;;14.90;6.12;;;;;;;;;;1746440;82;21017;-69
2022/02/09 20:11:38;;;;;;;12.98;4.60;;;;;;;;;;1741601;82;20988;-71
2022/02/09 20:14:03;;;;;;;10.10;4.97;;;;;;;;;;1749816;82;21012;-70
2022/02/09 20:16:29;;;;;;;9.63;4.53;;;;;;;;;;1715148;84;21097;-71
2022/02/09 20:18:56;;;;;;;14.20;5.00;;;;;;;;;;1714792;84;21009;-71
2022/02/09 20:21:25;;;;;;;13.95;6.33;;;;;;;;;;1714634;84;21060;-70
2022/02/09 20:23:52;;;;;;;18.65;6.90;;;;;;;;;;1665248;85;21061;-71
2022/02/09 20:26:18;;;;;;;14.60;6.78;;;;;;;;;;1713492;84;21513;-69
2022/02/09 20:28:54;;;;;;;16.02;6.72;;;;;;;;;;1675370;85;21073;-69
2022/02/09 20:31:19;;;;;;;13.25;6.00;;;;;;;;;;1721343;83;21135;-69
2022/02/09 20:33:51;;;;;;;14.38;5.80;;;;;;;;;;1721479;83;21573;-69
2022/02/09 20:36:16;;;;;;;15.18;6.40;;;;;;;;;;1723326;83;21503;-69
2022/02/09 20:38:43;;;;;;;14.03;6.53;;;;;;;;;;1723395;83;21401;-69
2022/02/09 20:41:10;;;;;;;13.83;5.87;;;;;;;;;;1718444;83;21052;-70
2022/02/09 20:43:44;;;;;;;15.63;6.45;;;;;;;;;;1720649;83;21511;-70
2022/02/09 20:46:07;;;;;;;14.40;7.00;;;;;;;;;;1734985;82;21040;-68
2022/02/09 20:48:33;;;;;;;10.45;5.28;;;;;;;;;;1723440;83;21079;-70
2022/02/09 20:51:01;;;;;;;10.68;5.33;;;;;;;;;;1723586;83;22204;-70
2022/02/09 20:53:27;;;;;;;10.45;5.45;;;;;;;;;;1722777;82;21040;-70
2022/02/09 20:55:54;;;;;;;14.60;6.00;;;;;;;;;;1726698;82;21029;-70
2022/02/09 20:58:19;;;;;;;12.90;6.10;;;;;;;;;;1714052;83;21176;-70
2022/02/09 21:00:56;;;;;;;11.95;4.92;;;;;;;;;;1720432;83;21099;-70
2022/02/09 21:08:44;;;;;;;15.83;6.42;;;;;;;;;;1740506;82;21500;-69
2022/02/09 21:11:11;;;;;;;12.88;5.50;;;;;;;;;;1722924;82;21033;-69
2022/02/09 21:19:08;;;;;;;14.13;5.85;;;;;;;;;;1726115;83;21004;-69
2022/02/09 21:26:44;;;;;;;18.75;6.70;;;;;;;;;;1715442;84;21032;-69
2022/02/09 21:45:14;;;;;;;19.12;7.67;;;;;;;;;;1687738;85;21069;-70
2022/02/09 21:52:00;;;;;;;25.35;9.30;;;;;;;;;;1747588;81;21072;-71
2022/02/09 22:22:39;;;;;;;13.50;5.62;;;;;;;;;;1741361;82;21072;-72
2022/02/09 22:26:10;;;;;;;12.18;5.87;;;;;;;;;;1736073;82;21041;-70
2022/02/09 22:27:37;;;;;;;9.35;4.72;;;;;;;;;;1728704;82;21084;-70
2022/02/09 22:34:15;;;;;;;9.33;4.90;;;;;;;;;;1688312;82;21084;-71
2022/02/09 22:45:40;;;;;;;10.35;4.58;;;;;;;;;;1728832;82;20151;-71
2022/02/09 22:56:00;;;;;;;10.70;4.65;;;;;;;;;;1721185;83;21040;-70
2022/02/09 22:58:25;;;;;;;14.63;5.00;;;;;;;;;;1737583;81;21088;-69
2022/02/09 23:01:06;;;;;;;11.90;5.00;;;;;;;;;;1741590;81;21092;-69
2022/02/09 23:13:44;;;;;;;17.00;6.45;;;;;;;;;;1740979;82;21037;-70
2022/02/09 23:16:28;;;;;;;13.50;5.42;;;;;;;;;;1737395;81;21087;-70
